sensor_id;sensor_type;location;lat;lon;timestamp;temperature;humidity
52107;DHT22;38105;52.968;5.974;2023-04-02T00:00:26;5.00;99.90
52107;DHT22;38105;52.968;5.974;2023-04-02T00:07:52;5.00;99.90
52107;DHT22;38105;52.968;5.974;2023-04-02T00:10:45;5.00;99.90
52107;DHT22;38105;52.968;5.974;2023-04-02T00:15:42;4.90;99.90
52107;DHT22;38105;52.968;5.974;2023-04-02T00:18:14;4.40;99.90
52107;DHT22;38105;52.968;5.974;2023-04-02T00:20:43;4.90;99.90
52107;DHT22;38105;52.968;5.974;2023-04-02T00:23:12;4.70;99.90
52107;DHT22;38105;52.968;5.974;2023-04-02T00:25:39;4.90;99.90
52107;DHT22;38105;52.968;5.974;2023-04-02T00:28:26;4.60;99.90
52107;DHT22;38105;52.968;5.974;2023-04-02T00:30:57;4.60;99.90
52107;DHT22;38105;52.968;5.974;2023-04-02T00:33:26;4.50;99.90
52107;DHT22;38105;52.968;5.974;2023-04-02T00:35:54;4.40;99.90
52107;DHT22;38105;52.968;5.974;2023-04-02T00:38:29;4.50;99.90
52107;DHT22;38105;52.968;5.974;2023-04-02T00:40:59;4.40;99.90
52107;DHT22;38105;52.968;5.974;2023-04-02T00:43:28;4.00;99.90
52107;DHT22;38105;52.968;5.974;2023-04-02T00:46:02;4.40;99.90
52107;DHT22;38105;52.968;5.974;2023-04-02T00:51:07;4.40;99.90
52107;DHT22;38105;52.968;5.974;2023-04-02T00:53:34;4.30;99.90
52107;DHT22;38105;52.968;5.974;2023-04-02T00:56:01;4.60;99.90
52107;DHT22;38105;52.968;5.974;2023-04-02T00:58:31;4.70;99.90
52107;DHT22;38105;52.968;5.974;2023-04-02T01:00:59;4.40;99.90
52107;DHT22;38105;52.968;5.974;2023-04-02T01:03:28;4.40;99.90
52107;DHT22;38105;52.968;5.974;2023-04-02T01:06:00;4.30;99.90
52107;DHT22;38105;52.968;5.974;2023-04-02T01:08:53;4.90;99.90
52107;DHT22;38105;52.968;5.974;2023-04-02T01:14:34;4.20;99.90
52107;DHT22;38105;52.968;5.974;2023-04-02T01:28:25;4.00;99.90
52107;DHT22;38105;52.968;5.974;2023-04-02T01:30:55;4.00;99.90
52107;DHT22;38105;52.968;5.974;2023-04-02T01:33:26;3.80;99.90
52107;DHT22;38105;52.968;5.974;2023-04-02T01:36:15;3.80;99.90
52107;DHT22;38105;52.968;5.974;2023-04-02T01:38:52;3.90;99.90
52107;DHT22;38105;52.968;5.974;2023-04-02T01:41:31;3.60;99.90
52107;DHT22;38105;52.968;5.974;2023-04-02T01:44:04;3.50;99.90
52107;DHT22;38105;52.968;5.974;2023-04-02T01:46:33;3.40;99.90
52107;DHT22;38105;52.968;5.974;2023-04-02T01:49:03;3.60;99.90
52107;DHT22;38105;52.968;5.974;2023-04-02T01:51:40;3.30;99.90
52107;DHT22;38105;52.968;5.974;2023-04-02T01:54:06;3.20;99.90
52107;DHT22;38105;52.968;5.974;2023-04-02T01:56:33;3.00;99.90
52107;DHT22;38105;52.968;5.974;2023-04-02T01:59:00;2.90;99.90
52107;DHT22;38105;52.968;5.974;2023-04-02T02:01:34;3.00;99.90
52107;DHT22;38105;52.968;5.974;2023-04-02T02:04:02;2.90;99.90
52107;DHT22;38105;52.968;5.974;2023-04-02T02:06:28;2.90;99.90
52107;DHT22;38105;52.968;5.974;2023-04-02T02:09:00;2.80;99.90
52107;DHT22;38105;52.968;5.974;2023-04-02T02:11:29;2.80;99.90
52107;DHT22;38105;52.968;5.974;2023-04-02T02:13:58;2.60;99.90
52107;DHT22;38105;52.968;5.974;2023-04-02T02:16:26;2.70;99.90
52107;DHT22;38105;52.968;5.974;2023-04-02T02:18:59;2.60;99.90
52107;DHT22;38105;52.968;5.974;2023-04-02T02:21:32;2.60;99.90
52107;DHT22;38105;52.968;5.974;2023-04-02T02:23:59;2.40;99.90
52107;DHT22;38105;52.968;5.974;2023-04-02T02:26:27;2.50;99.90
52107;DHT22;38105;52.968;5.974;2023-04-02T02:28:55;2.40;99.90
52107;DHT22;38105;52.968;5.974;2023-04-02T02:31:28;2.50;99.90
52107;DHT22;38105;52.968;5.974;2023-04-02T02:33:59;2.40;99.90
52107;DHT22;38105;52.968;5.974;2023-04-02T02:36:46;2.40;99.90
52107;DHT22;38105;52.968;5.974;2023-04-02T02:41:54;2.30;99.90
52107;DHT22;38105;52.968;5.974;2023-04-02T02:44:27;2.30;99.90
52107;DHT22;38105;52.968;5.974;2023-04-02T02:47:10;2.20;99.90
52107;DHT22;38105;52.968;5.974;2023-04-02T02:49:48;2.00;99.90
52107;DHT22;38105;52.968;5.974;2023-04-02T02:52:20;2.20;99.90
52107;DHT22;38105;52.968;5.974;2023-04-02T02:54:49;2.10;99.90
52107;DHT22;38105;52.968;5.974;2023-04-02T02:57:25;1.90;99.90
52107;DHT22;38105;52.968;5.974;2023-04-02T02:59:54;2.10;99.90
52107;DHT22;38105;52.968;5.974;2023-04-02T03:02:22;2.00;99.90
52107;DHT22;38105;52.968;5.974;2023-04-02T03:04:49;1.90;99.90
52107;DHT22;38105;52.968;5.974;2023-04-02T03:07:19;2.00;99.90
52107;DHT22;38105;52.968;5.974;2023-04-02T03:15:21;1.90;99.90
52107;DHT22;38105;52.968;5.974;2023-04-02T03:17:54;1.90;99.90
52107;DHT22;38105;52.968;5.974;2023-04-02T03:23:18;1.70;99.90
52107;DHT22;38105;52.968;5.974;2023-04-02T03:26:00;1.80;99.90
52107;DHT22;38105;52.968;5.974;2023-04-02T03:28:38;1.70;99.90
52107;DHT22;38105;52.968;5.974;2023-04-02T03:33:57;1.60;99.90
52107;DHT22;38105;52.968;5.974;2023-04-02T03:36:37;1.60;99.90
52107;DHT22;38105;52.968;5.974;2023-04-02T03:44:25;1.10;99.90
52107;DHT22;38105;52.968;5.974;2023-04-02T03:46:54;1.70;99.90
52107;DHT22;38105;52.968;5.974;2023-04-02T03:49:52;1.50;99.90
52107;DHT22;38105;52.968;5.974;2023-04-02T03:52:25;1.40;99.90
52107;DHT22;38105;52.968;5.974;2023-04-02T03:54:53;1.40;99.90
52107;DHT22;38105;52.968;5.974;2023-04-02T03:57:37;0.90;99.90
52107;DHT22;38105;52.968;5.974;2023-04-02T04:00:14;1.30;99.90
52107;DHT22;38105;52.968;5.974;2023-04-02T04:03:12;1.40;99.90
52107;DHT22;38105;52.968;5.974;2023-04-02T04:08:29;1.30;99.90
52107;DHT22;38105;52.968;5.974;2023-04-02T04:11:00;1.30;99.90
52107;DHT22;38105;52.968;5.974;2023-04-02T04:13:34;1.20;99.90
52107;DHT22;38105;52.968;5.974;2023-04-02T04:16:10;1.20;99.90
52107;DHT22;38105;52.968;5.974;2023-04-02T04:18:45;1.80;99.90
52107;DHT22;38105;52.968;5.974;2023-04-02T04:21:20;1.00;99.90
52107;DHT22;38105;52.968;5.974;2023-04-02T04:23:56;1.10;99.90
52107;DHT22;38105;52.968;5.974;2023-04-02T04:26:34;1.10;99.90
52107;DHT22;38105;52.968;5.974;2023-04-02T04:29:45;1.10;99.90
52107;DHT22;38105;52.968;5.974;2023-04-02T04:31:48;0.70;99.90
52107;DHT22;38105;52.968;5.974;2023-04-02T04:34:41;1.10;99.90
52107;DHT22;38105;52.968;5.974;2023-04-02T04:37:22;1.10;99.90
52107;DHT22;38105;52.968;5.974;2023-04-02T04:42:35;1.10;99.90
52107;DHT22;38105;52.968;5.974;2023-04-02T04:45:27;1.10;99.90
52107;DHT22;38105;52.968;5.974;2023-04-02T04:48:09;1.10;99.90
52107;DHT22;38105;52.968;5.974;2023-04-02T04:50:48;1.20;99.90
52107;DHT22;38105;52.968;5.974;2023-04-02T04:53:18;0.90;99.90
52107;DHT22;38105;52.968;5.974;2023-04-02T04:55:46;0.90;99.90
52107;DHT22;38105;52.968;5.974;2023-04-02T04:58:22;1.00;99.90
52107;DHT22;38105;52.968;5.974;2023-04-02T05:01:09;1.00;99.90
52107;DHT22;38105;52.968;5.974;2023-04-02T05:04:01;1.00;99.90
52107;DHT22;38105;52.968;5.974;2023-04-02T05:19:54;1.10;99.90
52107;DHT22;38105;52.968;5.974;2023-04-02T05:22:35;1.20;99.90
52107;DHT22;38105;52.968;5.974;2023-04-02T05:25:15;1.00;99.90
52107;DHT22;38105;52.968;5.974;2023-04-02T05:32:57;1.10;99.90
52107;DHT22;38105;52.968;5.974;2023-04-02T05:35:30;1.50;99.90
52107;DHT22;38105;52.968;5.974;2023-04-02T05:37:57;1.20;99.90
52107;DHT22;38105;52.968;5.974;2023-04-02T05:40:35;1.20;99.90
52107;DHT22;38105;52.968;5.974;2023-04-02T05:43:07;1.60;99.90
52107;DHT22;38105;52.968;5.974;2023-04-02T05:45:36;1.30;99.90
52107;DHT22;38105;52.968;5.974;2023-04-02T05:48:21;1.90;99.90
52107;DHT22;38105;52.968;5.974;2023-04-02T05:50:52;1.50;99.90
52107;DHT22;38105;52.968;5.974;2023-04-02T05:53:28;1.80;99.90
52107;DHT22;38105;52.968;5.974;2023-04-02T05:58:47;2.20;99.90
52107;DHT22;38105;52.968;5.974;2023-04-02T06:06:47;6.10;99.90
52107;DHT22;38105;52.968;5.974;2023-04-02T06:09:16;6.80;99.90
52107;DHT22;38105;52.968;5.974;2023-04-02T06:11:49;7.30;99.90
52107;DHT22;38105;52.968;5.974;2023-04-02T06:14:16;8.00;99.90
52107;DHT22;38105;52.968;5.974;2023-04-02T06:16:43;8.60;99.90
52107;DHT22;38105;52.968;5.974;2023-04-02T06:19:23;9.70;99.90
52107;DHT22;38105;52.968;5.974;2023-04-02T06:21:52;9.60;99.90
52107;DHT22;38105;52.968;5.974;2023-04-02T06:24:24;10.30;99.90
52107;DHT22;38105;52.968;5.974;2023-04-02T06:29:32;11.10;99.90
52107;DHT22;38105;52.968;5.974;2023-04-02T06:32:07;11.10;99.90
52107;DHT22;38105;52.968;5.974;2023-04-02T06:34:36;11.80;99.90
52107;DHT22;38105;52.968;5.974;2023-04-02T06:39:42;11.80;99.90
52107;DHT22;38105;52.968;5.974;2023-04-02T06:42:30;12.20;99.90
52107;DHT22;38105;52.968;5.974;2023-04-02T06:44:57;12.70;99.90
52107;DHT22;38105;52.968;5.974;2023-04-02T06:52:46;13.20;99.90
52107;DHT22;38105;52.968;5.974;2023-04-02T06:57:48;13.20;99.90
52107;DHT22;38105;52.968;5.974;2023-04-02T07:00:27;13.00;99.90
52107;DHT22;38105;52.968;5.974;2023-04-02T07:02:55;12.50;99.70
52107;DHT22;38105;52.968;5.974;2023-04-02T07:05:22;12.10;99.90
52107;DHT22;38105;52.968;5.974;2023-04-02T07:07:48;12.00;99.90
52107;DHT22;38105;52.968;5.974;2023-04-02T07:10:13;11.60;99.90
52107;DHT22;38105;52.968;5.974;2023-04-02T07:12:39;11.10;99.90
52107;DHT22;38105;52.968;5.974;2023-04-02T07:15:05;12.00;99.90
52107;DHT22;38105;52.968;5.974;2023-04-02T07:17:31;12.40;99.90
52107;DHT22;38105;52.968;5.974;2023-04-02T07:19:57;12.20;99.90
52107;DHT22;38105;52.968;5.974;2023-04-02T07:22:22;12.10;99.90
52107;DHT22;38105;52.968;5.974;2023-04-02T07:24:50;11.30;99.90
52107;DHT22;38105;52.968;5.974;2023-04-02T07:27:15;11.10;99.90
52107;DHT22;38105;52.968;5.974;2023-04-02T07:29:41;11.10;99.90
52107;DHT22;38105;52.968;5.974;2023-04-02T07:32:13;11.00;99.90
52107;DHT22;38105;52.968;5.974;2023-04-02T07:34:39;10.40;99.90
52107;DHT22;38105;52.968;5.974;2023-04-02T07:37:06;10.80;99.90
52107;DHT22;38105;52.968;5.974;2023-04-02T07:39:32;11.20;99.90
52107;DHT22;38105;52.968;5.974;2023-04-02T07:42:01;11.30;99.90
52107;DHT22;38105;52.968;5.974;2023-04-02T07:44:27;11.20;99.90
52107;DHT22;38105;52.968;5.974;2023-04-02T07:49:20;11.40;99.90
52107;DHT22;38105;52.968;5.974;2023-04-02T07:51:45;11.40;99.90
52107;DHT22;38105;52.968;5.974;2023-04-02T07:54:11;11.30;99.90
52107;DHT22;38105;52.968;5.974;2023-04-02T07:56:37;12.20;99.90
52107;DHT22;38105;52.968;5.974;2023-04-02T07:59:03;12.50;99.90
52107;DHT22;38105;52.968;5.974;2023-04-02T08:01:29;12.70;99.90
52107;DHT22;38105;52.968;5.974;2023-04-02T08:04:00;13.00;99.90
52107;DHT22;38105;52.968;5.974;2023-04-02T08:06:26;12.30;99.90
52107;DHT22;38105;52.968;5.974;2023-04-02T08:08:52;11.90;99.60
52107;DHT22;38105;52.968;5.974;2023-04-02T08:11:18;11.90;99.90
52107;DHT22;38105;52.968;5.974;2023-04-02T08:13:43;12.50;99.90
52107;DHT22;38105;52.968;5.974;2023-04-02T08:16:09;11.30;99.90
52107;DHT22;38105;52.968;5.974;2023-04-02T08:18:35;10.80;99.90
52107;DHT22;38105;52.968;5.974;2023-04-02T08:21:01;10.70;99.90
52107;DHT22;38105;52.968;5.974;2023-04-02T08:23:29;11.00;99.90
52107;DHT22;38105;52.968;5.974;2023-04-02T08:25:55;11.20;99.90
52107;DHT22;38105;52.968;5.974;2023-04-02T08:28:21;11.20;99.90
52107;DHT22;38105;52.968;5.974;2023-04-02T08:30:47;10.70;99.90
52107;DHT22;38105;52.968;5.974;2023-04-02T08:33:14;11.70;99.90
52107;DHT22;38105;52.968;5.974;2023-04-02T08:35:40;12.20;99.90
52107;DHT22;38105;52.968;5.974;2023-04-02T08:38:06;13.20;99.90
52107;DHT22;38105;52.968;5.974;2023-04-02T08:40:37;13.70;99.40
52107;DHT22;38105;52.968;5.974;2023-04-02T08:45:54;14.10;98.30
52107;DHT22;38105;52.968;5.974;2023-04-02T08:48:24;14.20;99.30
52107;DHT22;38105;52.968;5.974;2023-04-02T08:50:50;13.90;97.80
52107;DHT22;38105;52.968;5.974;2023-04-02T08:53:22;14.20;97.20
52107;DHT22;38105;52.968;5.974;2023-04-02T08:55:56;14.10;97.00
52107;DHT22;38105;52.968;5.974;2023-04-02T08:58:41;13.70;97.60
52107;DHT22;38105;52.968;5.974;2023-04-02T09:04:21;13.80;97.20
52107;DHT22;38105;52.968;5.974;2023-04-02T09:06:48;14.20;96.50
52107;DHT22;38105;52.968;5.974;2023-04-02T09:09:17;14.20;97.00
52107;DHT22;38105;52.968;5.974;2023-04-02T09:11:53;14.10;97.40
52107;DHT22;38105;52.968;5.974;2023-04-02T09:17:01;14.90;95.70
52107;DHT22;38105;52.968;5.974;2023-04-02T09:19:39;14.80;96.10
52107;DHT22;38105;52.968;5.974;2023-04-02T09:22:31;15.20;95.90
52107;DHT22;38105;52.968;5.974;2023-04-02T09:24:59;15.20;95.50
52107;DHT22;38105;52.968;5.974;2023-04-02T09:27:35;15.50;95.20
52107;DHT22;38105;52.968;5.974;2023-04-02T09:33:01;14.70;94.70
52107;DHT22;38105;52.968;5.974;2023-04-02T09:35:35;15.20;96.60
52107;DHT22;38105;52.968;5.974;2023-04-02T09:43:33;15.70;94.80
52107;DHT22;38105;52.968;5.974;2023-04-02T09:46:16;14.80;94.40
52107;DHT22;38105;52.968;5.974;2023-04-02T09:48:44;14.50;95.10
52107;DHT22;38105;52.968;5.974;2023-04-02T09:51:19;14.40;95.80
52107;DHT22;38105;52.968;5.974;2023-04-02T09:54:07;13.70;97.10
52107;DHT22;38105;52.968;5.974;2023-04-02T09:56:39;13.10;95.90
52107;DHT22;38105;52.968;5.974;2023-04-02T10:01:56;12.90;98.60
52107;DHT22;38105;52.968;5.974;2023-04-02T10:07:01;11.80;99.90
52107;DHT22;38105;52.968;5.974;2023-04-02T10:09:35;11.10;99.90
52107;DHT22;38105;52.968;5.974;2023-04-02T10:12:04;10.70;99.90
52107;DHT22;38105;52.968;5.974;2023-04-02T10:14:39;10.30;99.90
52107;DHT22;38105;52.968;5.974;2023-04-02T10:17:21;10.20;99.90
52107;DHT22;38105;52.968;5.974;2023-04-02T10:19:53;10.10;99.90
52107;DHT22;38105;52.968;5.974;2023-04-02T10:22:21;9.90;99.90
52107;DHT22;38105;52.968;5.974;2023-04-02T10:24:48;10.00;99.90
52107;DHT22;38105;52.968;5.974;2023-04-02T10:40:23;10.00;99.90
52107;DHT22;38105;52.968;5.974;2023-04-02T10:46:08;10.10;99.90
52107;DHT22;38105;52.968;5.974;2023-04-02T10:51:33;10.30;99.90
52107;DHT22;38105;52.968;5.974;2023-04-02T10:56:43;10.50;99.90
52107;DHT22;38105;52.968;5.974;2023-04-02T10:59:17;10.20;99.90
52107;DHT22;38105;52.968;5.974;2023-04-02T11:01:46;10.20;99.90
52107;DHT22;38105;52.968;5.974;2023-04-02T11:04:28;10.30;99.90
52107;DHT22;38105;52.968;5.974;2023-04-02T11:07:00;10.20;99.90
52107;DHT22;38105;52.968;5.974;2023-04-02T11:09:30;10.10;99.90
52107;DHT22;38105;52.968;5.974;2023-04-02T11:11:58;10.10;99.90
52107;DHT22;38105;52.968;5.974;2023-04-02T11:14:30;10.40;99.90
52107;DHT22;38105;52.968;5.974;2023-04-02T11:16:57;10.30;99.90
52107;DHT22;38105;52.968;5.974;2023-04-02T11:19:28;10.30;99.90
52107;DHT22;38105;52.968;5.974;2023-04-02T11:22:17;10.30;99.90
52107;DHT22;38105;52.968;5.974;2023-04-02T11:24:51;10.40;99.90
52107;DHT22;38105;52.968;5.974;2023-04-02T11:27:21;10.50;99.90
52107;DHT22;38105;52.968;5.974;2023-04-02T11:32:29;10.30;99.90
52107;DHT22;38105;52.968;5.974;2023-04-02T11:34:59;10.40;99.90
52107;DHT22;38105;52.968;5.974;2023-04-02T11:42:33;10.80;99.90
52107;DHT22;38105;52.968;5.974;2023-04-02T11:45:47;10.70;99.90
52107;DHT22;38105;52.968;5.974;2023-04-02T11:50:41;10.90;99.90
52107;DHT22;38105;52.968;5.974;2023-04-02T11:55:43;10.70;99.90
52107;DHT22;38105;52.968;5.974;2023-04-02T11:58:34;10.70;99.90
52107;DHT22;38105;52.968;5.974;2023-04-02T12:04:07;10.80;99.90
52107;DHT22;38105;52.968;5.974;2023-04-02T12:06:53;10.60;99.90
52107;DHT22;38105;52.968;5.974;2023-04-02T12:09:27;10.70;99.90
52107;DHT22;38105;52.968;5.974;2023-04-02T12:11:59;10.80;99.90
52107;DHT22;38105;52.968;5.974;2023-04-02T12:17:13;10.60;99.90
52107;DHT22;38105;52.968;5.974;2023-04-02T12:19:40;10.50;99.90
52107;DHT22;38105;52.968;5.974;2023-04-02T12:22:25;10.60;99.90
52107;DHT22;38105;52.968;5.974;2023-04-02T12:24:54;10.70;99.90
52107;DHT22;38105;52.968;5.974;2023-04-02T12:27:24;10.70;99.90
52107;DHT22;38105;52.968;5.974;2023-04-02T12:30:35;10.70;99.90
52107;DHT22;38105;52.968;5.974;2023-04-02T12:32:41;10.70;99.90
52107;DHT22;38105;52.968;5.974;2023-04-02T12:35:25;10.60;99.90
52107;DHT22;38105;52.968;5.974;2023-04-02T12:37:52;10.50;99.90
52107;DHT22;38105;52.968;5.974;2023-04-02T12:40:18;10.70;99.90
52107;DHT22;38105;52.968;5.974;2023-04-02T12:42:44;10.70;99.90
52107;DHT22;38105;52.968;5.974;2023-04-02T12:45:24;10.60;99.90
52107;DHT22;38105;52.968;5.974;2023-04-02T12:47:50;10.50;99.90
52107;DHT22;38105;52.968;5.974;2023-04-02T12:50:17;10.40;99.90
52107;DHT22;38105;52.968;5.974;2023-04-02T12:52:49;10.50;99.90
52107;DHT22;38105;52.968;5.974;2023-04-02T12:55:21;10.60;99.90
52107;DHT22;38105;52.968;5.974;2023-04-02T12:57:47;10.50;99.90
52107;DHT22;38105;52.968;5.974;2023-04-02T13:03:06;10.60;99.90
52107;DHT22;38105;52.968;5.974;2023-04-02T13:05:54;10.50;99.90
52107;DHT22;38105;52.968;5.974;2023-04-02T13:08:29;10.50;99.90
52107;DHT22;38105;52.968;5.974;2023-04-02T13:11:02;10.60;99.90
52107;DHT22;38105;52.968;5.974;2023-04-02T13:13:35;10.50;99.90
52107;DHT22;38105;52.968;5.974;2023-04-02T13:18:33;10.70;99.90
52107;DHT22;38105;52.968;5.974;2023-04-02T13:21:01;10.70;99.90
52107;DHT22;38105;52.968;5.974;2023-04-02T13:26:19;10.70;99.90
52107;DHT22;38105;52.968;5.974;2023-04-02T13:28:59;10.50;99.90
52107;DHT22;38105;52.968;5.974;2023-04-02T13:31:26;10.50;99.90
52107;DHT22;38105;52.968;5.974;2023-04-02T13:33:52;10.60;99.90
52107;DHT22;38105;52.968;5.974;2023-04-02T13:36:18;10.60;99.90
52107;DHT22;38105;52.968;5.974;2023-04-02T13:38:43;10.60;99.90
52107;DHT22;38105;52.968;5.974;2023-04-02T13:41:44;10.60;99.90
52107;DHT22;38105;52.968;5.974;2023-04-02T13:44:17;10.50;99.90
52107;DHT22;38105;52.968;5.974;2023-04-02T13:46:43;10.50;99.90
52107;DHT22;38105;52.968;5.974;2023-04-02T13:49:09;10.70;99.90
52107;DHT22;38105;52.968;5.974;2023-04-02T13:51:41;10.70;99.90
52107;DHT22;38105;52.968;5.974;2023-04-02T13:54:33;10.70;99.90
52107;DHT22;38105;52.968;5.974;2023-04-02T13:57:02;10.80;99.90
52107;DHT22;38105;52.968;5.974;2023-04-02T13:59:44;10.70;99.90
52107;DHT22;38105;52.968;5.974;2023-04-02T14:02:19;10.50;99.90
52107;DHT22;38105;52.968;5.974;2023-04-02T14:04:54;10.50;99.90
52107;DHT22;38105;52.968;5.974;2023-04-02T14:10:22;10.40;99.90
52107;DHT22;38105;52.968;5.974;2023-04-02T14:23:25;10.30;99.90
52107;DHT22;38105;52.968;5.974;2023-04-02T14:26:14;10.30;99.90
52107;DHT22;38105;52.968;5.974;2023-04-02T14:28:50;10.30;99.90
52107;DHT22;38105;52.968;5.974;2023-04-02T14:31:35;10.40;99.90
52107;DHT22;38105;52.968;5.974;2023-04-02T14:34:31;10.50;99.90
52107;DHT22;38105;52.968;5.974;2023-04-02T14:40:13;10.40;99.90
52107;DHT22;38105;52.968;5.974;2023-04-02T14:42:52;10.40;99.90
52107;DHT22;38105;52.968;5.974;2023-04-02T14:45:26;10.20;99.90
52107;DHT22;38105;52.968;5.974;2023-04-02T14:48:04;10.20;99.90
52107;DHT22;38105;52.968;5.974;2023-04-02T14:50:39;10.10;99.90
52107;DHT22;38105;52.968;5.974;2023-04-02T14:53:20;10.20;99.90
52107;DHT22;38105;52.968;5.974;2023-04-02T14:55:49;10.20;99.90
52107;DHT22;38105;52.968;5.974;2023-04-02T14:58:26;10.10;99.90
52107;DHT22;38105;52.968;5.974;2023-04-02T15:01:00;10.10;99.90
52107;DHT22;38105;52.968;5.974;2023-04-02T15:03:35;10.10;99.90
52107;DHT22;38105;52.968;5.974;2023-04-02T15:06:05;10.10;99.90
52107;DHT22;38105;52.968;5.974;2023-04-02T15:08:37;10.10;99.90
52107;DHT22;38105;52.968;5.974;2023-04-02T15:11:07;10.10;99.90
52107;DHT22;38105;52.968;5.974;2023-04-02T15:13:42;10.20;99.90
52107;DHT22;38105;52.968;5.974;2023-04-02T15:16:17;10.10;99.90
52107;DHT22;38105;52.968;5.974;2023-04-02T15:18:51;10.00;99.90
52107;DHT22;38105;52.968;5.974;2023-04-02T15:29:55;9.80;99.90
52107;DHT22;38105;52.968;5.974;2023-04-02T15:38:14;9.60;99.90
52107;DHT22;38105;52.968;5.974;2023-04-02T15:41:00;9.60;99.90
52107;DHT22;38105;52.968;5.974;2023-04-02T15:44:05;9.60;99.90
52107;DHT22;38105;52.968;5.974;2023-04-02T15:49:45;9.60;99.90
52107;DHT22;38105;52.968;5.974;2023-04-02T15:52:29;9.50;99.90
52107;DHT22;38105;52.968;5.974;2023-04-02T15:55:43;9.40;99.90
52107;DHT22;38105;52.968;5.974;2023-04-02T16:00:30;9.30;99.90
52107;DHT22;38105;52.968;5.974;2023-04-02T16:08:55;9.30;99.90
52107;DHT22;38105;52.968;5.974;2023-04-02T16:11:24;9.30;99.90
52107;DHT22;38105;52.968;5.974;2023-04-02T16:13:52;9.30;99.90
52107;DHT22;38105;52.968;5.974;2023-04-02T16:16:33;9.20;99.90
52107;DHT22;38105;52.968;5.974;2023-04-02T16:21:42;9.10;99.90
52107;DHT22;38105;52.968;5.974;2023-04-02T16:24:11;9.10;99.90
52107;DHT22;38105;52.968;5.974;2023-04-02T16:26:56;9.10;99.90
52107;DHT22;38105;52.968;5.974;2023-04-02T16:29:41;9.00;99.90
52107;DHT22;38105;52.968;5.974;2023-04-02T16:34:59;8.90;99.90
52107;DHT22;38105;52.968;5.974;2023-04-02T16:43:38;8.80;99.90
52107;DHT22;38105;52.968;5.974;2023-04-02T16:52:06;8.60;99.90
52107;DHT22;38105;52.968;5.974;2023-04-02T16:57:52;8.40;99.90
52107;DHT22;38105;52.968;5.974;2023-04-02T17:00:33;8.40;99.90
52107;DHT22;38105;52.968;5.974;2023-04-02T17:03:34;8.30;99.90
52107;DHT22;38105;52.968;5.974;2023-04-02T17:08:44;8.20;99.90
52107;DHT22;38105;52.968;5.974;2023-04-02T17:14:07;8.10;99.90
52107;DHT22;38105;52.968;5.974;2023-04-02T17:16:44;8.00;99.90
52107;DHT22;38105;52.968;5.974;2023-04-02T17:19:13;8.00;99.90
52107;DHT22;38105;52.968;5.974;2023-04-02T17:21:42;7.90;99.90
52107;DHT22;38105;52.968;5.974;2023-04-02T17:27:10;7.80;99.90
52107;DHT22;38105;52.968;5.974;2023-04-02T17:29:39;7.70;99.90
52107;DHT22;38105;52.968;5.974;2023-04-02T17:32:15;7.60;99.90
52107;DHT22;38105;52.968;5.974;2023-04-02T17:34:42;7.50;99.90
52107;DHT22;38105;52.968;5.974;2023-04-02T17:37:37;7.40;99.90
52107;DHT22;38105;52.968;5.974;2023-04-02T17:40:25;7.40;99.90
52107;DHT22;38105;52.968;5.974;2023-04-02T17:45:50;7.20;99.90
52107;DHT22;38105;52.968;5.974;2023-04-02T17:51:34;7.00;99.90
52107;DHT22;38105;52.968;5.974;2023-04-02T17:54:11;6.90;99.90
52107;DHT22;38105;52.968;5.974;2023-04-02T17:56:58;6.90;99.90
52107;DHT22;38105;52.968;5.974;2023-04-02T17:59:46;6.80;99.90
52107;DHT22;38105;52.968;5.974;2023-04-02T18:02:29;6.70;99.90
52107;DHT22;38105;52.968;5.974;2023-04-02T18:12:59;6.50;99.90
52107;DHT22;38105;52.968;5.974;2023-04-02T18:15:57;6.50;99.90
52107;DHT22;38105;52.968;5.974;2023-04-02T18:40:39;6.00;99.90
52107;DHT22;38105;52.968;5.974;2023-04-02T18:51:23;5.70;99.90
52107;DHT22;38105;52.968;5.974;2023-04-02T18:54:01;5.70;99.90
52107;DHT22;38105;52.968;5.974;2023-04-02T18:56:27;5.70;99.90
52107;DHT22;38105;52.968;5.974;2023-04-02T18:59:25;5.60;99.90
52107;DHT22;38105;52.968;5.974;2023-04-02T19:01:56;5.60;99.90
52107;DHT22;38105;52.968;5.974;2023-04-02T19:04:28;5.50;99.90
52107;DHT22;38105;52.968;5.974;2023-04-02T19:07:25;5.50;99.90
52107;DHT22;38105;52.968;5.974;2023-04-02T19:09:55;5.40;99.90
52107;DHT22;38105;52.968;5.974;2023-04-02T19:12:24;5.40;99.90
52107;DHT22;38105;52.968;5.974;2023-04-02T19:14:49;5.40;99.90
52107;DHT22;38105;52.968;5.974;2023-04-02T19:17:35;5.30;99.90
52107;DHT22;38105;52.968;5.974;2023-04-02T19:34:01;5.20;99.90
52107;DHT22;38105;52.968;5.974;2023-04-02T19:44:38;4.90;99.90
52107;DHT22;38105;52.968;5.974;2023-04-02T19:47:07;4.90;99.90
52107;DHT22;38105;52.968;5.974;2023-04-02T19:49:33;4.80;99.90
52107;DHT22;38105;52.968;5.974;2023-04-02T19:51:59;4.80;99.90
52107;DHT22;38105;52.968;5.974;2023-04-02T19:54:25;4.80;99.90
52107;DHT22;38105;52.968;5.974;2023-04-02T19:56:51;4.80;99.90
52107;DHT22;38105;52.968;5.974;2023-04-02T19:59:16;4.80;99.90
52107;DHT22;38105;52.968;5.974;2023-04-02T20:01:42;4.70;99.90
52107;DHT22;38105;52.968;5.974;2023-04-02T20:04:08;4.60;99.90
52107;DHT22;38105;52.968;5.974;2023-04-02T20:09:00;4.60;99.90
52107;DHT22;38105;52.968;5.974;2023-04-02T20:11:26;4.50;99.90
52107;DHT22;38105;52.968;5.974;2023-04-02T20:13:53;4.50;99.90
52107;DHT22;38105;52.968;5.974;2023-04-02T20:16:20;4.50;99.90
52107;DHT22;38105;52.968;5.974;2023-04-02T20:18:46;4.50;99.90
52107;DHT22;38105;52.968;5.974;2023-04-02T20:21:12;4.40;99.90
52107;DHT22;38105;52.968;5.974;2023-04-02T20:23:38;4.40;99.90
52107;DHT22;38105;52.968;5.974;2023-04-02T20:26:05;4.30;99.90
52107;DHT22;38105;52.968;5.974;2023-04-02T20:28:31;4.30;99.90
52107;DHT22;38105;52.968;5.974;2023-04-02T20:31:10;4.30;99.90
52107;DHT22;38105;52.968;5.974;2023-04-02T20:33:36;4.30;99.90
52107;DHT22;38105;52.968;5.974;2023-04-02T20:36:09;4.20;99.90
52107;DHT22;38105;52.968;5.974;2023-04-02T20:38:35;4.20;99.90
52107;DHT22;38105;52.968;5.974;2023-04-02T20:41:03;4.10;99.90
52107;DHT22;38105;52.968;5.974;2023-04-02T20:43:29;4.10;99.90
52107;DHT22;38105;52.968;5.974;2023-04-02T20:46:00;4.10;99.90
52107;DHT22;38105;52.968;5.974;2023-04-02T20:48:27;4.10;99.90
52107;DHT22;38105;52.968;5.974;2023-04-02T20:50:55;4.00;99.90
52107;DHT22;38105;52.968;5.974;2023-04-02T20:53:21;4.00;99.90
52107;DHT22;38105;52.968;5.974;2023-04-02T20:55:47;4.00;99.90
52107;DHT22;38105;52.968;5.974;2023-04-02T20:58:16;3.90;99.90
52107;DHT22;38105;52.968;5.974;2023-04-02T21:00:43;3.90;99.90
52107;DHT22;38105;52.968;5.974;2023-04-02T21:03:10;3.80;99.90
52107;DHT22;38105;52.968;5.974;2023-04-02T21:05:45;3.80;99.90
52107;DHT22;38105;52.968;5.974;2023-04-02T21:08:12;3.80;99.90
52107;DHT22;38105;52.968;5.974;2023-04-02T21:10:38;3.80;99.90
52107;DHT22;38105;52.968;5.974;2023-04-02T21:13:04;3.80;99.90
52107;DHT22;38105;52.968;5.974;2023-04-02T21:15:30;3.80;99.90
52107;DHT22;38105;52.968;5.974;2023-04-02T21:17:56;3.70;99.90